LTBALTBR

Guest
Details From LTBA - Istanbul Ataturk
To LTBR - YENISEHIR
Flight Number -
Tags generated
Created
Modified
Stats Distance 56 nm / 103 km
Max Altitude 300 ft / 91 m
Waypoints 3
Social Downloads 6
Likes 0
Share VATSIM

Download

Looking for another format? Having issues loading an existing format? Contact us
Advertisement - Login to hide

Notes

Basic altitude profile: - Ascent Rate: 2500ft/min - Ascent Speed: 250kts - Cruise Altitude: 35000ft - Cruise Speed: 420kts - Descent Rate: 1500ft/min - Descent Speed: 250kts Options: - Use NATs: yes - Use PACOTS: yes - Use low airways: yes - Use high airways: yes

Route

LTBA IST LTBR

ID Type Via Altitude Latitude Longitude Leg Dist Tot Dist Heading (true) Name
O LTBA APT - 0 ft / 0 m 40.97914˚ 28.81283˚ - 0 nm - Istanbul Ataturk
IST VOR - 300 ft / 91 m 40.96250˚ 28.80972˚ 1 nm 1 nm 188° / 188° ISTANBUL VORTAC
O LTBR APT - 0 ft / 0 m 40.25521˚ 29.56257˚ 54 nm 55 nm 141° / 141° YENISEHIR

Altitude Profile

Advertisement - Login to hide

LTBA

Details ICAO LTBA (IST)
Name Istanbul Ataturk
Region Turkey
Timezone Europe/Istanbul (UTC+3.0)
Stats Elevation 163 ft / 50 m (AMSL)
Location 40.979136° 28.812832°
Runways 3
Magnetic Variation 5.473° E

METAR

LTBA 242120Z 03006KT 010V110 CAVOK 22/17 Q1011 NOSIG

Decode

TAF

Not found

Departure Runways

ID Width Length Bearing (true) Bearing (mag) Surface Threshold Offset Overrun Length
05 197 ft / 60 m 8,514 ft / 2,595 m 58.64° 53.17° Concrete 400 ft / 122 m 197 ft / 60 m
17L 148 ft / 45 m 9,820 ft / 2,993 m 178.48° 173.01° Concrete 0 ft / 0 m 197 ft / 60 m
17R 148 ft / 45 m 9,858 ft / 3,005 m 178.49° 173.02° Concrete 0 ft / 0 m 0 ft / 0 m
23 197 ft / 60 m 8,514 ft / 2,595 m 238.65° 233.18° Concrete 0 ft / 0 m 197 ft / 60 m
35L 148 ft / 45 m 9,858 ft / 3,005 m 358.49° 353.02° Concrete 0 ft / 0 m 200 ft / 61 m
35R 148 ft / 45 m 9,820 ft / 2,993 m 358.48° 353.01° Concrete 0 ft / 0 m 197 ft / 60 m

LTBR

Details ICAO LTBR (YEI)
Name YENISEHIR
Region Turkey
Timezone Europe/Istanbul (UTC+3.0)
Stats Elevation 764 ft / 233 m (AMSL)
Location 40.255208° 29.562569°
Runways 2
Magnetic Variation 5.450° E

METAR

LTBR 242120Z 24006KT 9999 -SHRA FEW030CB SCT035 BKN100 18/17 Q1011 NOSIG

Decode

TAF

Not found

Destination Runways

ID Width Length Bearing (true) Bearing (mag) Surface Threshold Offset Overrun Length
07L 148 ft / 45 m 9,798 ft / 2,987 m 74.45° 69.00° Concrete 0 ft / 0 m 1,075 ft / 328 m
07R 98 ft / 30 m 9,799 ft / 2,987 m 74.45° 69.00° Concrete 0 ft / 0 m 137 ft / 42 m
25L 98 ft / 30 m 9,799 ft / 2,987 m 254.47° 249.02° Concrete 0 ft / 0 m 603 ft / 184 m
25R 148 ft / 45 m 9,798 ft / 2,987 m 254.48° 249.03° Concrete 0 ft / 0 m 1,082 ft / 330 m

Approach Navaids

Runway Type Ident Frequency Range Bearing (true) Bearing (mag) Slope Elevation
25R Localiser IYEN 109.70 MHz 18 nm / 33 km 254.21° 248.76° - 764 ft / 233 m (AMSL)
25R Glidescope IYEN 109.70 MHz 10 nm / 19 km 254.46° 249.01° 3.00° 798 ft / 243 m (AMSL)

Popular Alternatives